Florencia — IBPD — position and weather

sailwx.info

Track history (hours):
 
Tides and Currents Weather Stations Pressure Air Temp Water Temp Dewpoint Dewpoint Depression Visibility Wind Speed Wind Dir Waves Ship Positions

Florencia

Last reported at 2014-Nov-27 20:33 UTC. Time now 2014-Nov-27 20:47 UTC.
Position N 44°23' E 008°57'.

Length 186 m.

Type: Ship. MMSI: 247105900.

Date/timePositionNaut miles runAvg speedWind from/ knotsBaromVisibWave heightAir tempDewpointWater temp
2014-Nov-27 20:33N 44°23' E 008°57'2121.4
2014-Nov-27 19:34N 44°03' E 009°07'2221.7
2014-Nov-27 18:34N 43°43' E 009°18'2221.8
2014-Nov-27 17:33N 43°22' E 009°28'32621.5
2014-Nov-27 02:23N 38°39' E 013°02'1821.5
2014-Nov-27 01:34N 38°25' E 013°15'1818.5
2014-Nov-27 00:34N 38°07' E 013°23'1 1.0
2014-Nov-26 23:33N 38°08' E 013°22'0 0.0
2014-Nov-26 22:33N 38°08' E 013°22'0 0.0
2014-Nov-26 21:33N 38°08' E 013°22'0 0.0
2014-Nov-26 20:30N 38°08' E 013°22'0 0.0
2014-Nov-26 19:33N 38°08' E 013°22'5 5.0
2014-Nov-26 18:33N 38°13' E 013°24'2121.4
2014-Nov-26 17:33N 38°31' E 013°09'32421.5
2014-Nov-26 02:31N 43°10' E 009°32'2121.5
2014-Nov-26 01:33N 43°30' E 009°24'2221.7
2014-Nov-26 00:33N 43°50' E 009°13'2221.5
2014-Nov-25 23:33N 44°10' E 009°03'1514.9
2014-Nov-25 22:31N 44°25' E 008°55'0 0.0
2014-Nov-25 21:04N 44°25' E 008°55'0 0.0
2014-Nov-25 19:31N 44°25' E 008°55'0 0.0
2014-Nov-25 18:28N 44°25' E 008°55'0 0.0
2014-Nov-25 17:31N 44°25' E 008°55'7 6.8
2014-Nov-25 16:34N 44°19' E 008°59'2222.0
2014-Nov-25 15:33N 43°57' E 009°04'1818.2
2014-Nov-25 14:34N 43°42' E 009°18'2121.4
2014-Nov-25 13:33N 43°22' E 009°28'2222.1
2014-Nov-25 12:33N 43°01' E 009°38'2222.4
2014-Nov-25 11:33N 42°40' E 009°48'28321.5
2014-Nov-24 22:24N 38°38' E 013°01'1821.5
2014-Nov-24 21:33N 38°24' E 013°16'1717.1
2014-Nov-24 20:33N 38°07' E 013°23'1 0.6
2014-Nov-24 19:34N 38°08' E 013°22'0 0.0
2014-Nov-24 18:31N 38°08' E 013°22'0 0.0
2014-Nov-24 17:31N 38°08' E 013°22'0 0.0
2014-Nov-24 16:28N 38°08' E 013°22'0 0.0
2014-Nov-24 15:31N 38°08' E 013°22'0 0.0
2014-Nov-24 14:31N 38°08' E 013°22'0 0.0
2014-Nov-24 13:34N 38°08' E 013°22'0 0.0
2014-Nov-24 12:31N 38°08' E 013°22'0 0.0
2014-Nov-24 11:31N 38°08' E 013°22'0 0.0
2014-Nov-24 10:31N 38°08' E 013°22'0 0.0
2014-Nov-24 09:31N 38°08' E 013°22'0 0.0
2014-Nov-24 08:31N 38°08' E 013°22'0 0.0
2014-Nov-24 07:33N 38°08' E 013°22'0 0.2
2014-Nov-24 06:33N 38°08' E 013°22'1312.8
2014-Nov-24 05:33N 38°21' E 013°20'2221.8
2014-Nov-24 04:33N 38°38' E 013°03'30721.5
2014-Nov-23 14:16N 43°02' E 009°37'1521.0
2014-Nov-23 13:33N 43°16' E 009°30'2121.2
2014-Nov-23 12:33N 43°36' E 009°19'2121.4
2014-Nov-23 11:33N 43°56' E 009°09'2121.0
2014-Nov-23 10:33N 44°16' E 008°60'9 3.0
2014-Nov-23 07:31N 44°25' E 008°55'0 0.0
2014-Nov-23 06:33N 44°25' E 008°55'0 0.0
2014-Nov-23 05:32N 44°25' E 008°55'0 0.1
2014-Nov-23 04:33N 44°25' E 008°55'1413.8
2014-Nov-23 03:33N 44°12' E 009°03'2020.0
2014-Nov-23 02:33N 43°53' E 009°13'1817.7
2014-Nov-23 01:33N 43°36' E 009°19'1514.8
2014-Nov-23 00:33N 43°22' E 009°23'31918.5
2014-Nov-22 07:20N 38°44' E 012°53'1519.5
2014-Nov-22 06:33N 38°34' E 013°07'2019.9
2014-Nov-22 05:33N 38°19' E 013°23'1110.4
2014-Nov-22 04:31N 38°08' E 013°22'0 0.0
2014-Nov-22 03:31N 38°08' E 013°22'0 0.0
2014-Nov-22 02:31N 38°08' E 013°22'0 0.0
2014-Nov-22 01:31N 38°08' E 013°22'0 0.0
2014-Nov-22 00:31N 38°08' E 013°22'0 0.1
2014-Nov-21 23:33N 38°08' E 013°22'6 5.9
2014-Nov-21 22:33N 38°14' E 013°24'1919.3
2014-Nov-21 21:33N 38°30' E 013°10'32621.7
2014-Nov-21 06:32N 43°11' E 009°32'2121.8
2014-Nov-21 05:34N 43°31' E 009°22'2221.9
2014-Nov-21 04:34N 43°52' E 009°11'2221.5
2014-Nov-21 03:34N 44°12' E 009°01'1313.0
2014-Nov-21 02:32N 44°25' E 008°55'0 0.0
2014-Nov-21 01:29N 44°25' E 008°55'0 0.0
2014-Nov-21 00:32N 44°25' E 008°55'0 0.0
2014-Nov-20 23:29N 44°25' E 008°55'0 0.0
2014-Nov-20 22:33N 44°25' E 008°55'0 0.0
2014-Nov-20 21:33N 44°25' E 008°55'6 5.7
2014-Nov-20 20:33N 44°20' E 008°59'2221.8
2014-Nov-20 19:34N 43°59' E 009°10'2221.7
2014-Nov-20 18:33N 43°39' E 009°19'2221.7
2014-Nov-20 17:33N 43°18' E 009°29'32721.4
2014-Nov-20 02:16N 38°36' E 013°06'1521.2
2014-Nov-20 01:33N 38°24' E 013°18'1716.7
2014-Nov-20 00:33N 38°07' E 013°22'1 0.6
2014-Nov-19 23:32N 38°08' E 013°22'0 0.0
2014-Nov-19 22:32N 38°08' E 013°22'0 0.0
2014-Nov-19 21:29N 38°08' E 013°22'0 0.0
2014-Nov-19 20:32N 38°08' E 013°22'0 0.0
2014-Nov-19 19:32N 38°08' E 013°22'2 2.6
2014-Nov-19 18:34N 38°10' E 013°24'2020.4
2014-Nov-19 17:34N 38°28' E 013°12'2221.8
2014-Nov-19 16:34N 38°45' E 012°55'30421.7
2014-Nov-19 02:33N 43°07' E 009°32'2121.1
2014-Nov-19 01:33N 43°27' E 009°21'2121.4
2014-Nov-19 00:33N 43°47' E 009°12'2121.1
2014-Nov-18 23:33N 44°07' E 009°02'1817.9
2014-Nov-18 22:34N 44°24' E 008°55'0 0.3
2014-Nov-18 21:32N 44°25' E 008°55'0 0.0
2014-Nov-18 20:20N 44°25' E 008°55'0 0.0
2014-Nov-18 19:32N 44°25' E 008°55'0 0.0
2014-Nov-18 18:26N 44°25' E 008°55'0 0.0
2014-Nov-18 17:33N 44°25' E 008°55'1413.6
2014-Nov-18 16:33N 44°14' E 009°07'2121.4
2014-Nov-18 15:33N 43°54' E 009°16'2120.7
2014-Nov-18 14:34N 43°33' E 009°22'2121.1
2014-Nov-18 13:33N 43°13' E 009°27'31921.0
2014-Nov-17 22:24N 38°38' E 013°02'1821.2
2014-Nov-17 21:34N 38°24' E 013°16'1817.5
2014-Nov-17 20:34N 38°07' E 013°23'  
Track history (hours):
 
Tides and Currents Weather Stations Pressure Air Temp Water Temp Dewpoint Dewpoint Depression Visibility Wind Speed Wind Dir Waves Ship Positions

Florencia

Last reported at 2014-Nov-27 20:33 UTC. Time now 2014-Nov-27 20:47 UTC.
Position N 44°23' E 008°57'.

Length 186 m.

Type: Ship. MMSI: 247105900.

Date/timePositionNaut miles runAvg speedWind from/ knotsBaromVisibWave heightAir tempDewpointWater temp
2014-Nov-27 20:33N 44°23' E 008°57'2121.4
2014-Nov-27 19:34N 44°03' E 009°07'2221.7
2014-Nov-27 18:34N 43°43' E 009°18'2221.8
2014-Nov-27 17:33N 43°22' E 009°28'32621.5
2014-Nov-27 02:23N 38°39' E 013°02'1821.5
2014-Nov-27 01:34N 38°25' E 013°15'1818.5
2014-Nov-27 00:34N 38°07' E 013°23'1 1.0
2014-Nov-26 23:33N 38°08' E 013°22'0 0.0
2014-Nov-26 22:33N 38°08' E 013°22'0 0.0
2014-Nov-26 21:33N 38°08' E 013°22'0 0.0
2014-Nov-26 20:30N 38°08' E 013°22'0 0.0
2014-Nov-26 19:33N 38°08' E 013°22'5 5.0
2014-Nov-26 18:33N 38°13' E 013°24'2121.4
2014-Nov-26 17:33N 38°31' E 013°09'32421.5
2014-Nov-26 02:31N 43°10' E 009°32'2121.5
2014-Nov-26 01:33N 43°30' E 009°24'2221.7
2014-Nov-26 00:33N 43°50' E 009°13'2221.5
2014-Nov-25 23:33N 44°10' E 009°03'1514.9
2014-Nov-25 22:31N 44°25' E 008°55'0 0.0
2014-Nov-25 21:04N 44°25' E 008°55'0 0.0
2014-Nov-25 19:31N 44°25' E 008°55'0 0.0
2014-Nov-25 18:28N 44°25' E 008°55'0 0.0
2014-Nov-25 17:31N 44°25' E 008°55'7 6.8
2014-Nov-25 16:34N 44°19' E 008°59'2222.0
2014-Nov-25 15:33N 43°57' E 009°04'1818.2
2014-Nov-25 14:34N 43°42' E 009°18'2121.4
2014-Nov-25 13:33N 43°22' E 009°28'2222.1
2014-Nov-25 12:33N 43°01' E 009°38'2222.4
2014-Nov-25 11:33N 42°40' E 009°48'28321.5
2014-Nov-24 22:24N 38°38' E 013°01'1821.5
2014-Nov-24 21:33N 38°24' E 013°16'1717.1
2014-Nov-24 20:33N 38°07' E 013°23'1 0.6
2014-Nov-24 19:34N 38°08' E 013°22'0 0.0
2014-Nov-24 18:31N 38°08' E 013°22'0 0.0
2014-Nov-24 17:31N 38°08' E 013°22'0 0.0
2014-Nov-24 16:28N 38°08' E 013°22'0 0.0
2014-Nov-24 15:31N 38°08' E 013°22'0 0.0
2014-Nov-24 14:31N 38°08' E 013°22'0 0.0
2014-Nov-24 13:34N 38°08' E 013°22'0 0.0
2014-Nov-24 12:31N 38°08' E 013°22'0 0.0
2014-Nov-24 11:31N 38°08' E 013°22'0 0.0
2014-Nov-24 10:31N 38°08' E 013°22'0 0.0
2014-Nov-24 09:31N 38°08' E 013°22'0 0.0
2014-Nov-24 08:31N 38°08' E 013°22'0 0.0
2014-Nov-24 07:33N 38°08' E 013°22'0 0.2
2014-Nov-24 06:33N 38°08' E 013°22'1312.8
2014-Nov-24 05:33N 38°21' E 013°20'2221.8
2014-Nov-24 04:33N 38°38' E 013°03'30721.5
2014-Nov-23 14:16N 43°02' E 009°37'1521.0
2014-Nov-23 13:33N 43°16' E 009°30'2121.2
2014-Nov-23 12:33N 43°36' E 009°19'2121.4
2014-Nov-23 11:33N 43°56' E 009°09'2121.0
2014-Nov-23 10:33N 44°16' E 008°60'9 3.0
2014-Nov-23 07:31N 44°25' E 008°55'0 0.0
2014-Nov-23 06:33N 44°25' E 008°55'0 0.0
2014-Nov-23 05:32N 44°25' E 008°55'0 0.1
2014-Nov-23 04:33N 44°25' E 008°55'1413.8
2014-Nov-23 03:33N 44°12' E 009°03'2020.0
2014-Nov-23 02:33N 43°53' E 009°13'1817.7
2014-Nov-23 01:33N 43°36' E 009°19'1514.8
2014-Nov-23 00:33N 43°22' E 009°23'31918.5
2014-Nov-22 07:20N 38°44' E 012°53'1519.5
2014-Nov-22 06:33N 38°34' E 013°07'2019.9
2014-Nov-22 05:33N 38°19' E 013°23'1110.4
2014-Nov-22 04:31N 38°08' E 013°22'0 0.0
2014-Nov-22 03:31N 38°08' E 013°22'0 0.0
2014-Nov-22 02:31N 38°08' E 013°22'0 0.0
2014-Nov-22 01:31N 38°08' E 013°22'0 0.0
2014-Nov-22 00:31N 38°08' E 013°22'0 0.1
2014-Nov-21 23:33N 38°08' E 013°22'6 5.9
2014-Nov-21 22:33N 38°14' E 013°24'1919.3
2014-Nov-21 21:33N 38°30' E 013°10'32621.7
2014-Nov-21 06:32N 43°11' E 009°32'2121.8
2014-Nov-21 05:34N 43°31' E 009°22'2221.9
2014-Nov-21 04:34N 43°52' E 009°11'2221.5
2014-Nov-21 03:34N 44°12' E 009°01'1313.0
2014-Nov-21 02:32N 44°25' E 008°55'0 0.0
2014-Nov-21 01:29N 44°25' E 008°55'0 0.0
2014-Nov-21 00:32N 44°25' E 008°55'0 0.0
2014-Nov-20 23:29N 44°25' E 008°55'0 0.0
2014-Nov-20 22:33N 44°25' E 008°55'0 0.0
2014-Nov-20 21:33N 44°25' E 008°55'6 5.7
2014-Nov-20 20:33N 44°20' E 008°59'2221.8
2014-Nov-20 19:34N 43°59' E 009°10'2221.7
2014-Nov-20 18:33N 43°39' E 009°19'2221.7
2014-Nov-20 17:33N 43°18' E 009°29'32721.4
2014-Nov-20 02:16N 38°36' E 013°06'1521.2
2014-Nov-20 01:33N 38°24' E 013°18'1716.7
2014-Nov-20 00:33N 38°07' E 013°22'1 0.6
2014-Nov-19 23:32N 38°08' E 013°22'0 0.0
2014-Nov-19 22:32N 38°08' E 013°22'0 0.0
2014-Nov-19 21:29N 38°08' E 013°22'0 0.0
2014-Nov-19 20:32N 38°08' E 013°22'0 0.0
2014-Nov-19 19:32N 38°08' E 013°22'2 2.6
2014-Nov-19 18:34N 38°10' E 013°24'2020.4
2014-Nov-19 17:34N 38°28' E 013°12'2221.8
2014-Nov-19 16:34N 38°45' E 012°55'30421.7
2014-Nov-19 02:33N 43°07' E 009°32'2121.1
2014-Nov-19 01:33N 43°27' E 009°21'2121.4
2014-Nov-19 00:33N 43°47' E 009°12'2121.1
2014-Nov-18 23:33N 44°07' E 009°02'1817.9
2014-Nov-18 22:34N 44°24' E 008°55'0 0.3
2014-Nov-18 21:32N 44°25' E 008°55'0 0.0
2014-Nov-18 20:20N 44°25' E 008°55'0 0.0
2014-Nov-18 19:32N 44°25' E 008°55'0 0.0
2014-Nov-18 18:26N 44°25' E 008°55'0 0.0
2014-Nov-18 17:33N 44°25' E 008°55'1413.6
2014-Nov-18 16:33N 44°14' E 009°07'2121.4
2014-Nov-18 15:33N 43°54' E 009°16'2120.7
2014-Nov-18 14:34N 43°33' E 009°22'2121.1
2014-Nov-18 13:33N 43°13' E 009°27'31921.0
2014-Nov-17 22:24N 38°38' E 013°02'1821.2
2014-Nov-17 21:34N 38°24' E 013°16'1817.5
2014-Nov-17 20:34N 38°07' E 013°23'  

Dump ship's entire track history